sensor_id;sensor_type;location;lat;lon;timestamp;pressure;altitude;pressure_sealevel;temperature;humidity
37132;BME280;23035;50.032;21.978;2022-08-20T00:02:59;67611.03;;;23.07;100.00
37132;BME280;23035;50.032;21.978;2022-08-20T00:08:03;67614.88;;;23.13;100.00
37132;BME280;23035;50.032;21.978;2022-08-20T00:13:11;67620.72;;;23.14;100.00
37132;BME280;23035;50.032;21.978;2022-08-20T00:18:20;67514.13;;;22.14;100.00
37132;BME280;23035;50.032;21.978;2022-08-20T00:23:24;67418.44;;;21.26;100.00
37132;BME280;23035;50.032;21.978;2022-08-20T00:28:29;67442.22;;;21.48;100.00
37132;BME280;23035;50.032;21.978;2022-08-20T00:33:33;67439.56;;;21.48;100.00
37132;BME280;23035;50.032;21.978;2022-08-20T00:38:39;67479.94;;;21.79;100.00
37132;BME280;23035;50.032;21.978;2022-08-20T00:43:47;67481.66;;;21.83;100.00
37132;BME280;23035;50.032;21.978;2022-08-20T00:48:53;67304.91;;;20.19;100.00
37132;BME280;23035;50.032;21.978;2022-08-20T00:54:06;67250.38;;;19.68;100.00
37132;BME280;23035;50.032;21.978;2022-08-20T00:59:17;67220.03;;;19.37;100.00
37132;BME280;23035;50.032;21.978;2022-08-20T01:04:21;67226.53;;;19.43;100.00
37132;BME280;23035;50.032;21.978;2022-08-20T01:09:26;67303.84;;;20.18;100.00
37132;BME280;23035;50.032;21.978;2022-08-20T01:14:51;67348.69;;;20.60;100.00
37132;BME280;23035;50.032;21.978;2022-08-20T01:20:02;67393.47;;;21.00;100.00
37132;BME280;23035;50.032;21.978;2022-08-20T01:25:13;67330.78;;;20.41;100.00
37132;BME280;23035;50.032;21.978;2022-08-20T01:30:20;67355.59;;;20.62;100.00
37132;BME280;23035;50.032;21.978;2022-08-20T01:35:25;67389.91;;;21.04;100.00
37132;BME280;23035;50.032;21.978;2022-08-20T01:40:43;67379.00;;;20.91;100.00
37132;BME280;23035;50.032;21.978;2022-08-20T01:45:54;67258.94;;;19.73;100.00
37132;BME280;23035;50.032;21.978;2022-08-20T01:51:03;67316.25;;;20.30;100.00
37132;BME280;23035;50.032;21.978;2022-08-20T01:56:11;67363.22;;;20.72;100.00
37132;BME280;23035;50.032;21.978;2022-08-20T02:01:25;67327.13;;;20.43;100.00
37132;BME280;23035;50.032;21.978;2022-08-20T02:06:33;67383.75;;;20.91;100.00
37132;BME280;23035;50.032;21.978;2022-08-20T02:11:37;67355.59;;;20.62;100.00
37132;BME280;23035;50.032;21.978;2022-08-20T02:16:44;67334.66;;;20.47;100.00
37132;BME280;23035;50.032;21.978;2022-08-20T02:21:59;67229.34;;;19.51;100.00
37132;BME280;23035;50.032;21.978;2022-08-20T02:27:04;67184.41;;;19.03;100.00
37132;BME280;23035;50.032;21.978;2022-08-20T02:32:10;67127.25;;;18.52;100.00
37132;BME280;23035;50.032;21.978;2022-08-20T02:37:33;67147.72;;;18.69;100.00
37132;BME280;23035;50.032;21.978;2022-08-20T02:42:37;67224.97;;;19.44;100.00
37132;BME280;23035;50.032;21.978;2022-08-20T02:47:48;67148.78;;;18.70;100.00
37132;BME280;23035;50.032;21.978;2022-08-20T02:52:52;67115.94;;;18.41;100.00
37132;BME280;23035;50.032;21.978;2022-08-20T02:57:57;67123.94;;;18.46;100.00
37132;BME280;23035;50.032;21.978;2022-08-20T03:03:03;67195.75;;;19.14;100.00
37132;BME280;23035;50.032;21.978;2022-08-20T03:08:09;67167.75;;;18.90;100.00
37132;BME280;23035;50.032;21.978;2022-08-20T03:13:17;67132.56;;;18.54;100.00
37132;BME280;23035;50.032;21.978;2022-08-20T03:18:26;67193.25;;;19.19;100.00
37132;BME280;23035;50.032;21.978;2022-08-20T03:23:30;67192.56;;;19.13;100.00
37132;BME280;23035;50.032;21.978;2022-08-20T03:28:37;67200.72;;;19.24;100.00
37132;BME280;23035;50.032;21.978;2022-08-20T03:33:42;67287.63;;;20.03;100.00
37132;BME280;23035;50.032;21.978;2022-08-20T03:38:55;67255.22;;;19.72;100.00
37132;BME280;23035;50.032;21.978;2022-08-20T03:43:59;67340.59;;;20.53;100.00
37132;BME280;23035;50.032;21.978;2022-08-20T03:49:05;67362.19;;;20.73;100.00
37132;BME280;23035;50.032;21.978;2022-08-20T03:54:09;67324.41;;;20.40;100.00
37132;BME280;23035;50.032;21.978;2022-08-20T03:59:12;67395.84;;;21.10;100.00
37132;BME280;23035;50.032;21.978;2022-08-20T04:04:18;67423.72;;;21.26;100.00
37132;BME280;23035;50.032;21.978;2022-08-20T04:09:22;67426.00;;;21.33;100.00
37132;BME280;23035;50.032;21.978;2022-08-20T04:14:25;67425.44;;;21.33;100.00
37132;BME280;23035;50.032;21.978;2022-08-20T04:19:33;67294.50;;;20.04;100.00
37132;BME280;23035;50.032;21.978;2022-08-20T04:24:38;67250.91;;;19.68;100.00
37132;BME280;23035;50.032;21.978;2022-08-20T04:29:41;67237.47;;;19.58;100.00
37132;BME280;23035;50.032;21.978;2022-08-20T04:34:47;67259.00;;;19.76;100.00
37132;BME280;23035;50.032;21.978;2022-08-20T04:39:53;67247.72;;;19.68;100.00
37132;BME280;23035;50.032;21.978;2022-08-20T04:45:14;67294.66;;;20.10;100.00
37132;BME280;23035;50.032;21.978;2022-08-20T04:50:20;67359.56;;;20.73;100.00
37132;BME280;23035;50.032;21.978;2022-08-20T04:55:27;67461.75;;;21.69;100.00
37132;BME280;23035;50.032;21.978;2022-08-20T05:00:31;67510.94;;;22.13;100.00
37132;BME280;23035;50.032;21.978;2022-08-20T05:05:36;67458.50;;;21.66;100.00
37132;BME280;23035;50.032;21.978;2022-08-20T05:10:41;67457.84;;;21.61;100.00
37132;BME280;23035;50.032;21.978;2022-08-20T05:15:46;67508.28;;;22.13;100.00
37132;BME280;23035;50.032;21.978;2022-08-20T05:20:52;67603.44;;;23.00;100.00
37132;BME280;23035;50.032;21.978;2022-08-20T05:26:06;67611.53;;;23.05;100.00
37132;BME280;23035;50.032;21.978;2022-08-20T05:31:10;67601.28;;;22.98;100.00
37132;BME280;23035;50.032;21.978;2022-08-20T05:36:15;67556.97;;;22.59;100.00
37132;BME280;23035;50.032;21.978;2022-08-20T05:41:21;67546.13;;;22.49;100.00
37132;BME280;23035;50.032;21.978;2022-08-20T05:46:31;67593.78;;;22.94;100.00
37132;BME280;23035;50.032;21.978;2022-08-20T05:51:37;67577.56;;;22.81;100.00
37132;BME280;23035;50.032;21.978;2022-08-20T05:56:41;67624.03;;;23.19;100.00
37132;BME280;23035;50.032;21.978;2022-08-20T06:01:45;67694.47;;;23.88;100.00
37132;BME280;23035;50.032;21.978;2022-08-20T06:06:50;67719.94;;;24.12;100.00
37132;BME280;23035;50.032;21.978;2022-08-20T06:11:55;67678.72;;;23.71;100.00
37132;BME280;23035;50.032;21.978;2022-08-20T06:17:04;67742.22;;;24.36;100.00
37132;BME280;23035;50.032;21.978;2022-08-20T06:22:11;67741.63;;;24.33;100.00
37132;BME280;23035;50.032;21.978;2022-08-20T06:27:24;67787.06;;;24.73;100.00
37132;BME280;23035;50.032;21.978;2022-08-20T06:32:28;67802.31;;;24.89;100.00
37132;BME280;23035;50.032;21.978;2022-08-20T06:37:37;67878.19;;;25.61;100.00
37132;BME280;23035;50.032;21.978;2022-08-20T06:42:43;67942.16;;;26.18;100.00
37132;BME280;23035;50.032;21.978;2022-08-20T06:47:51;67881.97;;;25.64;100.00
37132;BME280;23035;50.032;21.978;2022-08-20T06:52:58;67901.97;;;25.78;100.00
37132;BME280;23035;50.032;21.978;2022-08-20T06:58:05;67918.84;;;25.96;100.00
37132;BME280;23035;50.032;21.978;2022-08-20T07:03:28;67995.88;;;26.69;100.00
37132;BME280;23035;50.032;21.978;2022-08-20T07:08:49;67943.88;;;26.25;100.00
37132;BME280;23035;50.032;21.978;2022-08-20T07:13:57;68093.00;;;27.60;100.00
37132;BME280;23035;50.032;21.978;2022-08-20T07:24:21;67922.63;;;26.00;100.00
37132;BME280;23035;50.032;21.978;2022-08-20T07:29:36;67984.53;;;26.61;100.00
37132;BME280;23035;50.032;21.978;2022-08-20T07:35:04;68066.97;;;27.35;100.00
37132;BME280;23035;50.032;21.978;2022-08-20T07:40:14;68114.25;;;27.82;100.00
37132;BME280;23035;50.032;21.978;2022-08-20T07:45:18;68078.41;;;27.49;100.00
37132;BME280;23035;50.032;21.978;2022-08-20T07:50:25;68023.00;;;26.94;100.00
37132;BME280;23035;50.032;21.978;2022-08-20T07:55:30;68100.69;;;27.69;100.00
37132;BME280;23035;50.032;21.978;2022-08-20T08:00:34;68088.19;;;27.58;100.00
37132;BME280;23035;50.032;21.978;2022-08-20T08:05:41;68127.19;;;27.89;100.00
37132;BME280;23035;50.032;21.978;2022-08-20T08:10:50;68124.03;;;27.91;100.00
37132;BME280;23035;50.032;21.978;2022-08-20T08:21:07;68168.63;;;28.36;100.00
37132;BME280;23035;50.032;21.978;2022-08-20T08:26:16;68221.84;;;28.85;100.00
37132;BME280;23035;50.032;21.978;2022-08-20T08:31:21;68200.53;;;28.58;99.12
37132;BME280;23035;50.032;21.978;2022-08-20T08:36:27;68213.13;;;28.77;96.83
37132;BME280;23035;50.032;21.978;2022-08-20T08:41:34;68143.13;;;28.14;98.23
37132;BME280;23035;50.032;21.978;2022-08-20T08:46:40;68103.38;;;27.72;99.24
37132;BME280;23035;50.032;21.978;2022-08-20T08:51:48;68093.69;;;27.65;100.00
37132;BME280;23035;50.032;21.978;2022-08-20T08:56:54;68120.72;;;27.86;96.78
37132;BME280;23035;50.032;21.978;2022-08-20T09:01:58;68130.53;;;27.97;95.32
37132;BME280;23035;50.032;21.978;2022-08-20T09:07:05;68145.16;;;28.09;92.39
37132;BME280;23035;50.032;21.978;2022-08-20T09:12:15;68169.59;;;28.32;91.95
37132;BME280;23035;50.032;21.978;2022-08-20T09:17:22;68215.22;;;28.74;91.06
37132;BME280;23035;50.032;21.978;2022-08-20T09:22:26;68228.97;;;28.95;87.81
37132;BME280;23035;50.032;21.978;2022-08-20T09:27:31;68246.84;;;29.09;85.94
37132;BME280;23035;50.032;21.978;2022-08-20T09:32:35;68219.66;;;28.83;86.96
37132;BME280;23035;50.032;21.978;2022-08-20T09:37:39;68283.13;;;29.35;76.57
37132;BME280;23035;50.032;21.978;2022-08-20T09:42:47;68244.59;;;29.02;67.01
37132;BME280;23035;50.032;21.978;2022-08-20T09:48:23;68240.38;;;29.05;64.36
37132;BME280;23035;50.032;21.978;2022-08-20T09:53:34;68231.06;;;28.92;66.03
37132;BME280;23035;50.032;21.978;2022-08-20T09:58:44;68240.91;;;29.06;65.43
37132;BME280;23035;50.032;21.978;2022-08-20T10:03:49;68270.66;;;29.26;64.34
37132;BME280;23035;50.032;21.978;2022-08-20T10:08:56;68277.75;;;29.35;63.23
37132;BME280;23035;50.032;21.978;2022-08-20T10:14:03;68291.41;;;29.51;64.31
37132;BME280;23035;50.032;21.978;2022-08-20T10:19:10;68299.56;;;29.58;62.27
37132;BME280;23035;50.032;21.978;2022-08-20T10:24:23;68389.25;;;30.42;58.66
37132;BME280;23035;50.032;21.978;2022-08-20T10:29:32;68364.75;;;30.17;57.28
37132;BME280;23035;50.032;21.978;2022-08-20T10:34:39;68334.88;;;29.91;57.43
37132;BME280;23035;50.032;21.978;2022-08-20T10:39:44;68322.94;;;29.80;59.67
37132;BME280;23035;50.032;21.978;2022-08-20T10:44:50;68332.13;;;29.86;58.87
37132;BME280;23035;50.032;21.978;2022-08-20T10:50:02;68303.88;;;29.60;60.51
37132;BME280;23035;50.032;21.978;2022-08-20T10:55:11;68410.97;;;30.60;56.25
37132;BME280;23035;50.032;21.978;2022-08-20T11:00:25;68451.84;;;31.03;55.09
37132;BME280;23035;50.032;21.978;2022-08-20T11:05:29;68471.28;;;31.11;55.83
37132;BME280;23035;50.032;21.978;2022-08-20T11:10:34;68424.09;;;30.77;55.40
37132;BME280;23035;50.032;21.978;2022-08-20T11:15:40;68446.91;;;30.96;55.92
37132;BME280;23035;50.032;21.978;2022-08-20T11:20:45;68388.69;;;30.39;56.53
37132;BME280;23035;50.032;21.978;2022-08-20T11:25:49;68430.63;;;30.81;55.39
37132;BME280;23035;50.032;21.978;2022-08-20T11:30:54;68535.09;;;31.79;52.92
37132;BME280;23035;50.032;21.978;2022-08-20T11:35:58;68633.09;;;32.73;48.65
37132;BME280;23035;50.032;21.978;2022-08-20T11:47:04;68689.16;;;33.23;46.85
37132;BME280;23035;50.032;21.978;2022-08-20T11:52:08;68695.66;;;33.24;45.65
37132;BME280;23035;50.032;21.978;2022-08-20T11:57:19;68657.53;;;32.88;47.95
37132;BME280;23035;50.032;21.978;2022-08-20T12:02:24;68804.09;;;34.25;45.87
37132;BME280;23035;50.032;21.978;2022-08-20T12:07:31;68750.19;;;33.80;43.31
37132;BME280;23035;50.032;21.978;2022-08-20T12:12:36;68784.56;;;34.14;43.36
37132;BME280;23035;50.032;21.978;2022-08-20T12:17:41;68785.03;;;34.10;43.47
37132;BME280;23035;50.032;21.978;2022-08-20T12:22:45;68741.44;;;33.69;43.63
37132;BME280;23035;50.032;21.978;2022-08-20T12:27:49;68779.06;;;34.07;43.18
37132;BME280;23035;50.032;21.978;2022-08-20T12:32:54;68831.88;;;34.51;42.21
37132;BME280;23035;50.032;21.978;2022-08-20T12:38:03;68831.41;;;34.56;42.23
37132;BME280;23035;50.032;21.978;2022-08-20T12:43:09;68847.19;;;34.70;41.60
37132;BME280;23035;50.032;21.978;2022-08-20T12:48:14;68819.41;;;34.44;42.26
37132;BME280;23035;50.032;21.978;2022-08-20T12:53:18;68890.31;;;35.16;40.58
37132;BME280;23035;50.032;21.978;2022-08-20T12:58:21;68926.25;;;35.42;40.13
37132;BME280;23035;50.032;21.978;2022-08-20T13:03:29;68860.25;;;34.80;40.24
37132;BME280;23035;50.032;21.978;2022-08-20T13:08:41;68818.81;;;34.41;39.20
37132;BME280;23035;50.032;21.978;2022-08-20T13:13:48;68702.28;;;33.37;43.38
37132;BME280;23035;50.032;21.978;2022-08-20T13:18:54;68771.97;;;34.00;41.17
37132;BME280;23035;50.032;21.978;2022-08-20T13:23:59;68829.78;;;34.57;39.83
37132;BME280;23035;50.032;21.978;2022-08-20T13:29:03;68774.13;;;34.00;40.91
37132;BME280;23035;50.032;21.978;2022-08-20T13:34:08;68756.72;;;33.86;42.40
37132;BME280;23035;50.032;21.978;2022-08-20T13:39:12;68843.38;;;34.67;40.94
37132;BME280;23035;50.032;21.978;2022-08-20T13:44:20;68811.19;;;34.34;42.42
37132;BME280;23035;50.032;21.978;2022-08-20T13:49:36;68902.28;;;35.22;40.28
37132;BME280;23035;50.032;21.978;2022-08-20T13:54:40;68871.16;;;34.90;41.07
37132;BME280;23035;50.032;21.978;2022-08-20T13:59:46;68891.38;;;35.14;40.48
37132;BME280;23035;50.032;21.978;2022-08-20T14:04:51;69022.78;;;36.32;38.15
37132;BME280;23035;50.032;21.978;2022-08-20T14:09:58;68926.28;;;35.44;39.68
37132;BME280;23035;50.032;21.978;2022-08-20T14:15:03;68891.38;;;35.12;40.68
37132;BME280;23035;50.032;21.978;2022-08-20T14:20:12;68962.25;;;35.78;39.56
37132;BME280;23035;50.032;21.978;2022-08-20T14:25:18;68860.28;;;34.83;40.81
37132;BME280;23035;50.032;21.978;2022-08-20T14:30:26;68944.81;;;35.61;39.21
37132;BME280;23035;50.032;21.978;2022-08-20T14:35:32;68866.25;;;34.86;40.25
37132;BME280;23035;50.032;21.978;2022-08-20T14:40:36;68895.75;;;35.18;39.47
37132;BME280;23035;50.032;21.978;2022-08-20T14:45:40;68860.31;;;34.85;39.62
37132;BME280;23035;50.032;21.978;2022-08-20T14:50:45;68847.72;;;34.71;40.68
37132;BME280;23035;50.032;21.978;2022-08-20T14:55:50;68783.41;;;34.11;41.10
37132;BME280;23035;50.032;21.978;2022-08-20T15:00:58;68818.81;;;34.41;40.16
37132;BME280;23035;50.032;21.978;2022-08-20T15:06:03;68807.34;;;34.28;41.31
37132;BME280;23035;50.032;21.978;2022-08-20T15:11:32;68727.81;;;33.54;42.46
37132;BME280;23035;50.032;21.978;2022-08-20T15:16:45;68712.59;;;33.45;42.35
37132;BME280;23035;50.032;21.978;2022-08-20T15:21:53;68827.53;;;34.49;40.07
37132;BME280;23035;50.032;21.978;2022-08-20T15:26:56;68784.50;;;34.09;41.52
37132;BME280;23035;50.032;21.978;2022-08-20T15:32:03;68763.19;;;33.87;41.89
37132;BME280;23035;50.032;21.978;2022-08-20T15:37:10;68721.25;;;33.48;42.63
37132;BME280;23035;50.032;21.978;2022-08-20T15:42:15;68766.00;;;33.94;41.85
37132;BME280;23035;50.032;21.978;2022-08-20T15:47:22;68610.69;;;32.44;44.96
37132;BME280;23035;50.032;21.978;2022-08-20T15:52:34;68498.59;;;31.45;47.04
37132;BME280;23035;50.032;21.978;2022-08-20T15:57:48;68481.78;;;31.31;47.52
37132;BME280;23035;50.032;21.978;2022-08-20T16:03:13;68427.31;;;30.75;50.01
37132;BME280;23035;50.032;21.978;2022-08-20T16:08:36;68303.28;;;29.57;54.08
37132;BME280;23035;50.032;21.978;2022-08-20T16:13:48;68321.75;;;29.74;53.73
37132;BME280;23035;50.032;21.978;2022-08-20T16:18:54;68289.72;;;29.47;54.69
37132;BME280;23035;50.032;21.978;2022-08-20T16:24:00;68325.63;;;29.80;54.36
37132;BME280;23035;50.032;21.978;2022-08-20T16:29:08;68295.66;;;29.50;55.15
37132;BME280;23035;50.032;21.978;2022-08-20T16:34:21;68260.91;;;29.20;56.34
37132;BME280;23035;50.032;21.978;2022-08-20T16:39:40;68250.06;;;29.09;57.56
37132;BME280;23035;50.032;21.978;2022-08-20T16:44:51;68234.81;;;28.93;58.34
37132;BME280;23035;50.032;21.978;2022-08-20T16:50:00;68236.41;;;28.92;58.55
37132;BME280;23035;50.032;21.978;2022-08-20T16:55:07;68238.69;;;29.01;58.75
37132;BME280;23035;50.032;21.978;2022-08-20T17:00:17;68240.31;;;29.03;59.13
37132;BME280;23035;50.032;21.978;2022-08-20T17:05:24;68215.84;;;28.80;60.12
37132;BME280;23035;50.032;21.978;2022-08-20T17:10:33;68253.31;;;29.12;59.02
37132;BME280;23035;50.032;21.978;2022-08-20T17:15:37;68193.03;;;28.58;60.97
37132;BME280;23035;50.032;21.978;2022-08-20T17:20:43;68138.09;;;28.02;63.93
37132;BME280;23035;50.032;21.978;2022-08-20T17:25:56;68137.59;;;28.04;64.43
37132;BME280;23035;50.032;21.978;2022-08-20T17:31:01;68130.44;;;27.92;65.32
37132;BME280;23035;50.032;21.978;2022-08-20T17:36:08;68142.94;;;28.04;65.12
37132;BME280;23035;50.032;21.978;2022-08-20T17:41:19;68057.25;;;27.29;68.66
37132;BME280;23035;50.032;21.978;2022-08-20T17:46:26;68082.13;;;27.47;68.84
37132;BME280;23035;50.032;21.978;2022-08-20T17:51:35;68059.38;;;27.28;69.43
37132;BME280;23035;50.032;21.978;2022-08-20T17:56:42;68015.53;;;26.95;71.07
37132;BME280;23035;50.032;21.978;2022-08-20T18:01:46;68012.13;;;26.84;72.50
37132;BME280;23035;50.032;21.978;2022-08-20T18:06:55;67982.25;;;26.53;74.50
37132;BME280;23035;50.032;21.978;2022-08-20T18:12:10;67987.19;;;26.61;74.19
37132;BME280;23035;50.032;21.978;2022-08-20T18:18:02;67994.25;;;26.67;74.22
37132;BME280;23035;50.032;21.978;2022-08-20T18:23:11;67958.47;;;26.36;75.90
37132;BME280;23035;50.032;21.978;2022-08-20T18:28:22;67962.78;;;26.38;76.53
37132;BME280;23035;50.032;21.978;2022-08-20T18:33:30;67949.69;;;26.23;77.51
37132;BME280;23035;50.032;21.978;2022-08-20T18:38:37;67928.09;;;26.08;78.73
37132;BME280;23035;50.032;21.978;2022-08-20T18:43:44;67946.44;;;26.20;78.22
37132;BME280;23035;50.032;21.978;2022-08-20T18:48:52;67881.44;;;25.64;81.72
37132;BME280;23035;50.032;21.978;2022-08-20T18:53:57;67913.50;;;25.96;80.19
37132;BME280;23035;50.032;21.978;2022-08-20T18:59:05;67897.69;;;25.77;81.48
37132;BME280;23035;50.032;21.978;2022-08-20T19:04:16;67906.31;;;25.82;81.95
37132;BME280;23035;50.032;21.978;2022-08-20T19:09:37;67863.50;;;25.44;85.13
37132;BME280;23035;50.032;21.978;2022-08-20T19:14:58;67848.34;;;25.30;86.58
37132;BME280;23035;50.032;21.978;2022-08-20T19:20:05;67879.31;;;25.64;84.72
37132;BME280;23035;50.032;21.978;2022-08-20T19:25:20;67852.16;;;25.36;86.22
37132;BME280;23035;50.032;21.978;2022-08-20T19:30:35;67816.88;;;25.01;89.44
37132;BME280;23035;50.032;21.978;2022-08-20T19:35:40;67809.78;;;24.92;90.95
37132;BME280;23035;50.032;21.978;2022-08-20T19:40:44;67839.66;;;25.22;88.99
37132;BME280;23035;50.032;21.978;2022-08-20T19:45:54;67799.03;;;24.86;91.63
37132;BME280;23035;50.032;21.978;2022-08-20T19:51:05;67810.38;;;24.95;91.41
37132;BME280;23035;50.032;21.978;2022-08-20T19:56:14;67766.44;;;24.51;94.55
37132;BME280;23035;50.032;21.978;2022-08-20T20:01:21;67802.78;;;24.87;92.40
37132;BME280;23035;50.032;21.978;2022-08-20T20:06:29;67793.03;;;24.78;93.21
37132;BME280;23035;50.032;21.978;2022-08-20T20:11:40;67731.31;;;24.23;98.34
37132;BME280;23035;50.032;21.978;2022-08-20T20:16:48;67752.94;;;24.41;97.56
37132;BME280;23035;50.032;21.978;2022-08-20T20:22:02;67809.88;;;24.97;93.70
37132;BME280;23035;50.032;21.978;2022-08-20T20:27:13;67730.22;;;24.22;99.17
37132;BME280;23035;50.032;21.978;2022-08-20T20:32:28;67680.34;;;23.72;100.00
37132;BME280;23035;50.032;21.978;2022-08-20T20:37:39;67658.25;;;23.57;100.00
37132;BME280;23035;50.032;21.978;2022-08-20T20:43:00;67678.78;;;23.73;100.00
37132;BME280;23035;50.032;21.978;2022-08-20T20:48:18;67668.53;;;23.66;100.00
37132;BME280;23035;50.032;21.978;2022-08-20T20:53:25;67633.16;;;23.26;100.00
37132;BME280;23035;50.032;21.978;2022-08-20T20:58:50;67626.25;;;23.24;100.00
37132;BME280;23035;50.032;21.978;2022-08-20T21:03:59;67630.03;;;23.28;100.00
37132;BME280;23035;50.032;21.978;2022-08-20T21:09:02;67625.72;;;23.24;100.00
37132;BME280;23035;50.032;21.978;2022-08-20T21:14:06;67674.94;;;23.67;100.00
37132;BME280;23035;50.032;21.978;2022-08-20T21:19:12;67706.34;;;23.97;100.00
37132;BME280;23035;50.032;21.978;2022-08-20T21:24:17;67657.69;;;23.56;100.00
37132;BME280;23035;50.032;21.978;2022-08-20T21:29:24;67693.41;;;23.87;100.00
37132;BME280;23035;50.032;21.978;2022-08-20T21:34:35;67691.19;;;23.83;100.00
37132;BME280;23035;50.032;21.978;2022-08-20T21:39:40;67706.81;;;23.95;100.00
37132;BME280;23035;50.032;21.978;2022-08-20T21:44:44;67706.28;;;23.94;100.00
37132;BME280;23035;50.032;21.978;2022-08-20T21:49:52;67735.00;;;24.21;100.00
37132;BME280;23035;50.032;21.978;2022-08-20T21:54:56;67714.47;;;24.04;100.00
37132;BME280;23035;50.032;21.978;2022-08-20T22:00:12;67645.75;;;23.42;100.00
37132;BME280;23035;50.032;21.978;2022-08-20T22:05:22;67660.97;;;23.59;100.00
37132;BME280;23035;50.032;21.978;2022-08-20T22:10:26;67690.69;;;23.85;100.00
37132;BME280;23035;50.032;21.978;2022-08-20T22:15:29;67634.31;;;23.29;100.00
37132;BME280;23035;50.032;21.978;2022-08-20T22:20:35;67634.38;;;23.32;100.00
37132;BME280;23035;50.032;21.978;2022-08-20T22:25:39;67663.63;;;23.59;100.00
37132;BME280;23035;50.032;21.978;2022-08-20T22:30:43;67651.03;;;23.42;100.00
37132;BME280;23035;50.032;21.978;2022-08-20T22:35:52;67626.78;;;23.25;100.00
37132;BME280;23035;50.032;21.978;2022-08-20T22:40:57;67617.50;;;23.11;100.00
37132;BME280;23035;50.032;21.978;2022-08-20T22:46:01;67583.91;;;22.79;100.00
37132;BME280;23035;50.032;21.978;2022-08-20T22:51:06;67598.59;;;22.96;100.00
37132;BME280;23035;50.032;21.978;2022-08-20T22:56:11;67578.00;;;22.76;100.00
37132;BME280;23035;50.032;21.978;2022-08-20T23:01:24;67586.69;;;22.84;100.00
37132;BME280;23035;50.032;21.978;2022-08-20T23:06:29;67608.34;;;23.05;100.00
37132;BME280;23035;50.032;21.978;2022-08-20T23:11:34;67627.16;;;23.17;100.00
37132;BME280;23035;50.032;21.978;2022-08-20T23:16:40;67600.25;;;23.00;100.00
37132;BME280;23035;50.032;21.978;2022-08-20T23:21:51;67605.16;;;23.04;100.00
37132;BME280;23035;50.032;21.978;2022-08-20T23:26:55;67599.13;;;22.96;100.00
37132;BME280;23035;50.032;21.978;2022-08-20T23:31:59;67588.31;;;22.86;100.00
37132;BME280;23035;50.032;21.978;2022-08-20T23:37:05;67606.75;;;23.06;100.00
37132;BME280;23035;50.032;21.978;2022-08-20T23:42:10;67637.56;;;23.32;100.00
37132;BME280;23035;50.032;21.978;2022-08-20T23:47:18;67614.28;;;23.10;100.00
37132;BME280;23035;50.032;21.978;2022-08-20T23:52:24;67542.84;;;22.43;100.00
37132;BME280;23035;50.032;21.978;2022-08-20T23:57:28;67514.75;;;22.19;100.00
